sensor_id;sensor_type;location;lat;lon;timestamp;pressure;altitude;pressure_sealevel;temperature;humidity
58771;BME280;44539;42.962;1.596;2023-04-04T06:50:25;97013.63;;;2.44;100.00
58771;BME280;44539;42.962;1.596;2023-04-04T06:52:51;97013.56;;;2.55;100.00
58771;BME280;44539;42.962;1.596;2023-04-04T06:55:17;97016.56;;;2.72;100.00
58771;BME280;44539;42.962;1.596;2023-04-04T06:57:42;97021.22;;;2.89;100.00
58771;BME280;44539;42.962;1.596;2023-04-04T07:00:09;97022.22;;;2.98;100.00
58771;BME280;44539;42.962;1.596;2023-04-04T07:02:35;97018.63;;;3.30;100.00
58771;BME280;44539;42.962;1.596;2023-04-04T07:05:01;97010.63;;;3.41;100.00
58771;BME280;44539;42.962;1.596;2023-04-04T07:07:27;97018.66;;;3.49;100.00
58771;BME280;44539;42.962;1.596;2023-04-04T07:09:54;97012.84;;;3.45;100.00
58771;BME280;44539;42.962;1.596;2023-04-04T07:12:19;97004.88;;;3.66;100.00
58771;BME280;44539;42.962;1.596;2023-04-04T07:14:45;97007.41;;;3.87;100.00
58771;BME280;44539;42.962;1.596;2023-04-04T07:17:10;97004.78;;;3.97;100.00
58771;BME280;44539;42.962;1.596;2023-04-04T07:19:35;97010.31;;;4.14;100.00
58771;BME280;44539;42.962;1.596;2023-04-04T07:22:01;97008.38;;;4.35;100.00
58771;BME280;44539;42.962;1.596;2023-04-04T07:24:26;97003.50;;;4.50;100.00
58771;BME280;44539;42.962;1.596;2023-04-04T07:26:52;97004.31;;;4.70;100.00
58771;BME280;44539;42.962;1.596;2023-04-04T07:29:17;97012.16;;;4.89;100.00
58771;BME280;44539;42.962;1.596;2023-04-04T07:31:42;97015.28;;;5.03;100.00
58771;BME280;44539;42.962;1.596;2023-04-04T07:34:08;97012.41;;;5.06;100.00
58771;BME280;44539;42.962;1.596;2023-04-04T07:36:34;97011.31;;;5.26;100.00
58771;BME280;44539;42.962;1.596;2023-04-04T07:38:59;97009.69;;;5.53;100.00
58771;BME280;44539;42.962;1.596;2023-04-04T07:41:24;97007.97;;;5.80;100.00
58771;BME280;44539;42.962;1.596;2023-04-04T07:43:50;97003.78;;;5.87;100.00
58771;BME280;44539;42.962;1.596;2023-04-04T07:46:16;97001.38;;;5.93;100.00
58771;BME280;44539;42.962;1.596;2023-04-04T07:48:42;97002.91;;;6.14;100.00
58771;BME280;44539;42.962;1.596;2023-04-04T07:51:07;96999.44;;;6.31;100.00
58771;BME280;44539;42.962;1.596;2023-04-04T07:53:33;96997.00;;;6.56;100.00
58771;BME280;44539;42.962;1.596;2023-04-04T07:55:58;96988.09;;;6.57;100.00
58771;BME280;44539;42.962;1.596;2023-04-04T07:58:30;97001.41;;;6.73;100.00
58771;BME280;44539;42.962;1.596;2023-04-04T08:00:55;97001.66;;;6.62;100.00
58771;BME280;44539;42.962;1.596;2023-04-04T08:03:21;96987.66;;;6.88;100.00
58771;BME280;44539;42.962;1.596;2023-04-04T08:05:48;96986.19;;;6.93;100.00
58771;BME280;44539;42.962;1.596;2023-04-04T08:08:13;96975.41;;;6.87;100.00
58771;BME280;44539;42.962;1.596;2023-04-04T08:10:38;96984.69;;;6.91;100.00
58771;BME280;44539;42.962;1.596;2023-04-04T08:13:04;96975.84;;;7.00;100.00
58771;BME280;44539;42.962;1.596;2023-04-04T08:15:30;96980.28;;;7.42;89.85
58771;BME280;44539;42.962;1.596;2023-04-04T08:17:55;97009.31;;;7.68;86.91
58771;BME280;44539;42.962;1.596;2023-04-04T08:20:20;96982.66;;;8.37;77.36
58771;BME280;44539;42.962;1.596;2023-04-04T08:22:46;96976.88;;;8.42;79.18
58771;BME280;44539;42.962;1.596;2023-04-04T08:25:11;96980.50;;;8.57;79.84
58771;BME280;44539;42.962;1.596;2023-04-04T08:27:39;96985.97;;;8.64;76.47
58771;BME280;44539;42.962;1.596;2023-04-04T08:30:08;96980.81;;;8.78;73.59
58771;BME280;44539;42.962;1.596;2023-04-04T08:32:34;96995.34;;;8.91;72.62
58771;BME280;44539;42.962;1.596;2023-04-04T08:34:59;96982.59;;;9.03;71.76
58771;BME280;44539;42.962;1.596;2023-04-04T08:37:24;96993.00;;;9.04;78.17
58771;BME280;44539;42.962;1.596;2023-04-04T08:39:50;96993.28;;;9.26;71.93
58771;BME280;44539;42.962;1.596;2023-04-04T08:42:17;96995.09;;;9.33;72.31
58771;BME280;44539;42.962;1.596;2023-04-04T08:44:44;96985.56;;;9.47;70.90
58771;BME280;44539;42.962;1.596;2023-04-04T08:47:12;97000.63;;;9.55;73.43
58771;BME280;44539;42.962;1.596;2023-04-04T08:49:42;97000.63;;;9.55;71.88
58771;BME280;44539;42.962;1.596;2023-04-04T08:52:10;96985.41;;;9.49;68.23
58771;BME280;44539;42.962;1.596;2023-04-04T08:54:37;97008.69;;;9.70;69.93
58771;BME280;44539;42.962;1.596;2023-04-04T08:57:04;96996.06;;;9.72;69.60
58771;BME280;44539;42.962;1.596;2023-04-04T08:59:29;96991.44;;;9.74;68.62
58771;BME280;44539;42.962;1.596;2023-04-04T09:05:00;96993.63;;;9.93;72.17
58771;BME280;44539;42.962;1.596;2023-04-04T09:07:27;96999.31;;;9.90;69.81
58771;BME280;44539;42.962;1.596;2023-04-04T09:09:53;97008.41;;;9.88;72.05
58771;BME280;44539;42.962;1.596;2023-04-04T09:12:19;97005.63;;;9.81;73.57
58771;BME280;44539;42.962;1.596;2023-04-04T09:14:47;97010.22;;;9.95;75.16
58771;BME280;44539;42.962;1.596;2023-04-04T09:17:14;97011.03;;;9.96;74.46
58771;BME280;44539;42.962;1.596;2023-04-04T09:19:40;97010.50;;;10.00;74.71
58771;BME280;44539;42.962;1.596;2023-04-04T09:22:06;97013.34;;;9.99;72.24
58771;BME280;44539;42.962;1.596;2023-04-04T09:24:42;97009.59;;;9.85;73.95
58771;BME280;44539;42.962;1.596;2023-04-04T09:27:08;97007.25;;;9.90;73.71
58771;BME280;44539;42.962;1.596;2023-04-04T09:29:36;96999.56;;;10.04;73.04
58771;BME280;44539;42.962;1.596;2023-04-04T09:32:02;96990.28;;;9.99;72.78
58771;BME280;44539;42.962;1.596;2023-04-04T09:34:28;97001.72;;;10.31;72.83
58771;BME280;44539;42.962;1.596;2023-04-04T09:36:54;97001.06;;;10.29;69.76
58771;BME280;44539;42.962;1.596;2023-04-04T09:39:19;96997.91;;;10.26;71.90
58771;BME280;44539;42.962;1.596;2023-04-04T09:41:48;96998.16;;;10.39;69.61
58771;BME280;44539;42.962;1.596;2023-04-04T09:44:15;96996.03;;;10.57;70.90
58771;BME280;44539;42.962;1.596;2023-04-04T09:46:41;96994.00;;;10.82;72.57
58771;BME280;44539;42.962;1.596;2023-04-04T09:49:18;97009.84;;;10.53;67.39
58771;BME280;44539;42.962;1.596;2023-04-04T09:51:47;97002.56;;;10.70;69.71
58771;BME280;44539;42.962;1.596;2023-04-04T09:54:20;96998.44;;;10.67;71.93
58771;BME280;44539;42.962;1.596;2023-04-04T09:56:46;97002.28;;;10.65;72.42
58771;BME280;44539;42.962;1.596;2023-04-04T09:59:12;97006.59;;;10.66;73.63
58771;BME280;44539;42.962;1.596;2023-04-04T10:01:38;97004.44;;;10.84;74.39
58771;BME280;44539;42.962;1.596;2023-04-04T10:04:04;96997.88;;;10.95;70.34
58771;BME280;44539;42.962;1.596;2023-04-04T10:06:30;97002.81;;;11.13;70.12
58771;BME280;44539;42.962;1.596;2023-04-04T10:08:56;96996.03;;;11.10;72.02
58771;BME280;44539;42.962;1.596;2023-04-04T10:11:31;97004.91;;;11.02;69.58
58771;BME280;44539;42.962;1.596;2023-04-04T10:13:58;97002.09;;;11.04;69.53
58771;BME280;44539;42.962;1.596;2023-04-04T10:16:24;97012.25;;;11.15;71.04
58771;BME280;44539;42.962;1.596;2023-04-04T10:18:51;97015.19;;;10.91;69.21
58771;BME280;44539;42.962;1.596;2023-04-04T10:21:16;97028.78;;;11.26;70.12
58771;BME280;44539;42.962;1.596;2023-04-04T10:23:45;97020.97;;;11.09;68.71
58771;BME280;44539;42.962;1.596;2023-04-04T10:26:11;97034.25;;;11.24;69.84
58771;BME280;44539;42.962;1.596;2023-04-04T10:28:37;97032.88;;;11.13;70.01
58771;BME280;44539;42.962;1.596;2023-04-04T10:36:22;97029.59;;;11.41;69.22
58771;BME280;44539;42.962;1.596;2023-04-04T10:38:54;97017.03;;;11.64;71.71
58771;BME280;44539;42.962;1.596;2023-04-04T10:41:24;97032.63;;;11.53;72.25
58771;BME280;44539;42.962;1.596;2023-04-04T10:43:55;97030.31;;;11.35;72.54
58771;BME280;44539;42.962;1.596;2023-04-04T10:46:21;97028.31;;;11.67;73.42
58771;BME280;44539;42.962;1.596;2023-04-04T10:48:56;97036.94;;;11.54;72.66
58771;BME280;44539;42.962;1.596;2023-04-04T10:51:22;97026.13;;;11.40;73.74
58771;BME280;44539;42.962;1.596;2023-04-04T10:53:47;97026.69;;;11.36;76.36
58771;BME280;44539;42.962;1.596;2023-04-04T10:56:14;97031.63;;;11.39;76.84
58771;BME280;44539;42.962;1.596;2023-04-04T10:58:40;97030.63;;;11.40;79.58
58771;BME280;44539;42.962;1.596;2023-04-04T11:01:06;97038.75;;;11.09;78.34
58771;BME280;44539;42.962;1.596;2023-04-04T11:07:11;97047.94;;;11.65;75.68
58771;BME280;44539;42.962;1.596;2023-04-04T11:09:50;97044.34;;;11.73;76.85
58771;BME280;44539;42.962;1.596;2023-04-04T11:18:04;97043.09;;;11.54;77.91
58771;BME280;44539;42.962;1.596;2023-04-04T11:20:34;97052.53;;;11.72;78.54
58771;BME280;44539;42.962;1.596;2023-04-04T11:23:37;97052.31;;;11.29;78.57
58771;BME280;44539;42.962;1.596;2023-04-04T11:26:18;97056.28;;;11.77;78.27
58771;BME280;44539;42.962;1.596;2023-04-04T11:29:02;97047.56;;;11.69;77.11
58771;BME280;44539;42.962;1.596;2023-04-04T11:31:32;97053.16;;;12.03;78.28
58771;BME280;44539;42.962;1.596;2023-04-04T11:34:09;97048.13;;;12.30;75.68
58771;BME280;44539;42.962;1.596;2023-04-04T11:42:12;97047.19;;;12.01;74.43
58771;BME280;44539;42.962;1.596;2023-04-04T11:47:12;97057.94;;;11.78;75.33
58771;BME280;44539;42.962;1.596;2023-04-04T11:49:41;97055.53;;;11.98;74.57
58771;BME280;44539;42.962;1.596;2023-04-04T11:52:11;97052.47;;;12.31;75.13
58771;BME280;44539;42.962;1.596;2023-04-04T11:54:38;97046.56;;;12.57;73.42
58771;BME280;44539;42.962;1.596;2023-04-04T11:57:10;97049.41;;;12.34;72.20
58771;BME280;44539;42.962;1.596;2023-04-04T11:59:46;97053.28;;;12.75;72.75
58771;BME280;44539;42.962;1.596;2023-04-04T12:02:13;97052.19;;;12.69;70.06
58771;BME280;44539;42.962;1.596;2023-04-04T12:04:40;97061.75;;;13.06;70.25
58771;BME280;44539;42.962;1.596;2023-04-04T12:07:08;97063.34;;;13.01;70.04
58771;BME280;44539;42.962;1.596;2023-04-04T12:09:34;97055.75;;;12.76;72.11
58771;BME280;44539;42.962;1.596;2023-04-04T12:12:00;97060.22;;;13.19;68.65
58771;BME280;44539;42.962;1.596;2023-04-04T12:14:25;97060.13;;;12.84;68.72
58771;BME280;44539;42.962;1.596;2023-04-04T12:16:53;97065.56;;;12.76;70.00
58771;BME280;44539;42.962;1.596;2023-04-04T12:19:21;97064.88;;;12.88;70.15
58771;BME280;44539;42.962;1.596;2023-04-04T12:21:48;97064.38;;;13.00;68.12
58771;BME280;44539;42.962;1.596;2023-04-04T12:24:14;97053.13;;;13.04;68.57
58771;BME280;44539;42.962;1.596;2023-04-04T12:26:47;97074.88;;;13.30;68.67
58771;BME280;44539;42.962;1.596;2023-04-04T12:29:14;97064.16;;;13.01;64.43
58771;BME280;44539;42.962;1.596;2023-04-04T12:31:43;97074.59;;;13.24;68.22
58771;BME280;44539;42.962;1.596;2023-04-04T12:34:27;97070.34;;;13.58;66.57
58771;BME280;44539;42.962;1.596;2023-04-04T12:36:55;97071.38;;;13.29;66.60
58771;BME280;44539;42.962;1.596;2023-04-04T12:39:23;97071.28;;;13.22;66.82
58771;BME280;44539;42.962;1.596;2023-04-04T12:42:01;97065.59;;;12.97;67.33
58771;BME280;44539;42.962;1.596;2023-04-04T12:44:38;97074.72;;;13.16;68.16
58771;BME280;44539;42.962;1.596;2023-04-04T12:47:08;97064.84;;;13.32;66.43
58771;BME280;44539;42.962;1.596;2023-04-04T12:49:42;97073.94;;;13.44;66.21
58771;BME280;44539;42.962;1.596;2023-04-04T12:52:38;97069.22;;;13.46;67.01
58771;BME280;44539;42.962;1.596;2023-04-04T12:55:07;97061.84;;;13.48;67.35
58771;BME280;44539;42.962;1.596;2023-04-04T12:57:34;97064.69;;;13.75;66.11
58771;BME280;44539;42.962;1.596;2023-04-04T13:00:01;97058.22;;;13.56;67.03
58771;BME280;44539;42.962;1.596;2023-04-04T13:02:26;97060.22;;;13.19;65.05
58771;BME280;44539;42.962;1.596;2023-04-04T13:04:53;97053.47;;;13.93;64.75
58771;BME280;44539;42.962;1.596;2023-04-04T13:09:59;97052.72;;;14.12;65.27
58771;BME280;44539;42.962;1.596;2023-04-04T13:13:00;97047.84;;;14.29;63.14
58771;BME280;44539;42.962;1.596;2023-04-04T13:15:51;97036.44;;;13.87;61.78
58771;BME280;44539;42.962;1.596;2023-04-04T13:18:17;97034.31;;;13.82;61.91
58771;BME280;44539;42.962;1.596;2023-04-04T13:20:45;97037.59;;;13.78;59.84
58771;BME280;44539;42.962;1.596;2023-04-04T13:23:10;97044.66;;;13.92;62.08
58771;BME280;44539;42.962;1.596;2023-04-04T13:25:37;97041.47;;;13.68;58.96
58771;BME280;44539;42.962;1.596;2023-04-04T13:28:02;97032.44;;;14.31;59.21
58771;BME280;44539;42.962;1.596;2023-04-04T13:30:27;97026.75;;;13.86;55.75
58771;BME280;44539;42.962;1.596;2023-04-04T13:32:53;97036.84;;;13.49;57.08
58771;BME280;44539;42.962;1.596;2023-04-04T13:35:18;97036.22;;;13.95;56.69
58771;BME280;44539;42.962;1.596;2023-04-04T13:37:44;97040.47;;;14.31;55.90
58771;BME280;44539;42.962;1.596;2023-04-04T13:40:10;97035.56;;;14.35;56.44
58771;BME280;44539;42.962;1.596;2023-04-04T13:42:35;97030.84;;;14.50;56.39
58771;BME280;44539;42.962;1.596;2023-04-04T13:45:00;97028.25;;;14.97;57.22
58771;BME280;44539;42.962;1.596;2023-04-04T13:47:26;97034.63;;;14.82;54.76
58771;BME280;44539;42.962;1.596;2023-04-04T13:49:52;97030.41;;;14.46;55.19
58771;BME280;44539;42.962;1.596;2023-04-04T13:52:19;97030.84;;;14.43;54.73
58771;BME280;44539;42.962;1.596;2023-04-04T13:54:44;97042.81;;;14.67;52.80
58771;BME280;44539;42.962;1.596;2023-04-04T13:57:10;97021.84;;;14.91;53.25
58771;BME280;44539;42.962;1.596;2023-04-04T13:59:35;97040.94;;;14.55;53.04
58771;BME280;44539;42.962;1.596;2023-04-04T14:02:01;97035.84;;;14.60;52.14
58771;BME280;44539;42.962;1.596;2023-04-04T14:04:28;97039.75;;;14.84;53.94
58771;BME280;44539;42.962;1.596;2023-04-04T14:06:53;97033.16;;;13.92;52.54
58771;BME280;44539;42.962;1.596;2023-04-04T14:09:19;97030.31;;;14.68;51.23
58771;BME280;44539;42.962;1.596;2023-04-04T14:11:44;97036.69;;;15.07;51.11
58771;BME280;44539;42.962;1.596;2023-04-04T14:14:10;97037.06;;;15.30;50.71
58771;BME280;44539;42.962;1.596;2023-04-04T14:16:35;97034.78;;;15.47;46.80
58771;BME280;44539;42.962;1.596;2023-04-04T14:19:01;97026.72;;;15.61;49.68
58771;BME280;44539;42.962;1.596;2023-04-04T14:21:27;97027.22;;;14.91;46.57
58771;BME280;44539;42.962;1.596;2023-04-04T14:23:52;97028.22;;;15.37;46.64
58771;BME280;44539;42.962;1.596;2023-04-04T14:26:18;97030.53;;;16.05;47.33
58771;BME280;44539;42.962;1.596;2023-04-04T14:28:43;97027.19;;;16.09;49.77
58771;BME280;44539;42.962;1.596;2023-04-04T14:31:08;97029.28;;;16.46;47.53
58771;BME280;44539;42.962;1.596;2023-04-04T14:33:34;97028.13;;;16.99;46.21
58771;BME280;44539;42.962;1.596;2023-04-04T14:35:59;97023.75;;;16.66;44.21
58771;BME280;44539;42.962;1.596;2023-04-04T14:38:25;97024.97;;;16.00;45.14
58771;BME280;44539;42.962;1.596;2023-04-04T14:40:50;97022.28;;;16.38;46.24
58771;BME280;44539;42.962;1.596;2023-04-04T14:43:16;97024.03;;;16.89;44.63
58771;BME280;44539;42.962;1.596;2023-04-04T14:45:41;97028.53;;;16.25;44.09
58771;BME280;44539;42.962;1.596;2023-04-04T14:48:07;97027.72;;;17.20;42.98
58771;BME280;44539;42.962;1.596;2023-04-04T14:50:32;97022.06;;;17.28;43.91
58771;BME280;44539;42.962;1.596;2023-04-04T14:52:58;97030.38;;;16.63;45.04
58771;BME280;44539;42.962;1.596;2023-04-04T14:55:23;97035.00;;;17.57;44.14
58771;BME280;44539;42.962;1.596;2023-04-04T14:57:50;97029.47;;;17.51;43.94
58771;BME280;44539;42.962;1.596;2023-04-04T15:00:16;97029.78;;;17.43;44.59
58771;BME280;44539;42.962;1.596;2023-04-04T15:02:45;97037.34;;;18.08;44.89
58771;BME280;44539;42.962;1.596;2023-04-04T15:05:13;97024.72;;;18.09;43.06
58771;BME280;44539;42.962;1.596;2023-04-04T15:07:39;97036.25;;;17.35;43.55
58771;BME280;44539;42.962;1.596;2023-04-04T15:10:05;97028.97;;;16.61;43.88
58771;BME280;44539;42.962;1.596;2023-04-04T15:12:31;97034.22;;;17.49;45.88
58771;BME280;44539;42.962;1.596;2023-04-04T15:14:56;97037.63;;;16.94;44.13
58771;BME280;44539;42.962;1.596;2023-04-04T15:17:22;97038.28;;;16.20;45.10
58771;BME280;44539;42.962;1.596;2023-04-04T15:19:47;97041.22;;;15.06;45.54
58771;BME280;44539;42.962;1.596;2023-04-04T15:22:12;97039.00;;;15.95;45.59
58771;BME280;44539;42.962;1.596;2023-04-04T15:24:38;97035.00;;;16.18;47.62
58771;BME280;44539;42.962;1.596;2023-04-04T15:27:03;97042.72;;;17.03;46.23
58771;BME280;44539;42.962;1.596;2023-04-04T15:29:29;97029.47;;;17.51;43.86
58771;BME280;44539;42.962;1.596;2023-04-04T15:31:54;97032.13;;;16.51;43.97
58771;BME280;44539;42.962;1.596;2023-04-04T15:34:19;97034.06;;;16.69;43.76
58771;BME280;44539;42.962;1.596;2023-04-04T15:36:45;97046.72;;;16.93;44.22
58771;BME280;44539;42.962;1.596;2023-04-04T15:39:10;97045.94;;;16.86;43.99
58771;BME280;44539;42.962;1.596;2023-04-04T15:41:36;97039.31;;;16.89;43.75
58771;BME280;44539;42.962;1.596;2023-04-04T15:44:03;97039.47;;;17.19;41.98
58771;BME280;44539;42.962;1.596;2023-04-04T15:46:30;97038.66;;;16.93;41.77
58771;BME280;44539;42.962;1.596;2023-04-04T15:48:55;97050.63;;;16.21;41.82
58771;BME280;44539;42.962;1.596;2023-04-04T15:51:21;97042.22;;;16.87;41.63
58771;BME280;44539;42.962;1.596;2023-04-04T15:53:46;97043.34;;;17.48;41.29
58771;BME280;44539;42.962;1.596;2023-04-04T15:56:12;97037.91;;;18.29;42.40
58771;BME280;44539;42.962;1.596;2023-04-04T15:58:38;97049.53;;;18.71;40.84
58771;BME280;44539;42.962;1.596;2023-04-04T16:01:05;97057.25;;;19.10;37.78
58771;BME280;44539;42.962;1.596;2023-04-04T16:03:30;97056.78;;;17.23;36.97
58771;BME280;44539;42.962;1.596;2023-04-04T16:05:56;97060.28;;;16.67;37.49
58771;BME280;44539;42.962;1.596;2023-04-04T16:08:21;97063.03;;;16.53;38.85
58771;BME280;44539;42.962;1.596;2023-04-04T16:10:46;97059.09;;;16.94;39.23
58771;BME280;44539;42.962;1.596;2023-04-04T16:13:12;97070.53;;;16.77;37.89
58771;BME280;44539;42.962;1.596;2023-04-04T16:15:38;97073.28;;;17.02;37.25
58771;BME280;44539;42.962;1.596;2023-04-04T16:18:03;97067.88;;;18.14;35.79
58771;BME280;44539;42.962;1.596;2023-04-04T16:20:29;97073.41;;;17.57;36.52
58771;BME280;44539;42.962;1.596;2023-04-04T16:22:54;97074.31;;;17.51;37.56
58771;BME280;44539;42.962;1.596;2023-04-04T16:25:20;97088.47;;;18.02;38.12
58771;BME280;44539;42.962;1.596;2023-04-04T16:27:46;97082.22;;;17.64;35.28
58771;BME280;44539;42.962;1.596;2023-04-04T16:30:12;97084.00;;;17.52;34.71
58771;BME280;44539;42.962;1.596;2023-04-04T16:32:38;97089.41;;;18.44;34.96
58771;BME280;44539;42.962;1.596;2023-04-04T16:35:06;97088.28;;;19.24;34.21
58771;BME280;44539;42.962;1.596;2023-04-04T16:37:32;97095.69;;;18.56;34.41
58771;BME280;44539;42.962;1.596;2023-04-04T16:39:57;97089.41;;;18.93;34.63
58771;BME280;44539;42.962;1.596;2023-04-04T16:42:25;97106.25;;;18.70;33.78
58771;BME280;44539;42.962;1.596;2023-04-04T16:44:51;97103.41;;;19.49;32.41
58771;BME280;44539;42.962;1.596;2023-04-04T16:47:17;97112.59;;;18.27;33.51
58771;BME280;44539;42.962;1.596;2023-04-04T16:49:42;97110.69;;;19.48;33.06
58771;BME280;44539;42.962;1.596;2023-04-04T16:52:09;97109.56;;;18.53;33.03
58771;BME280;44539;42.962;1.596;2023-04-04T16:54:35;97121.72;;;19.05;34.34
58771;BME280;44539;42.962;1.596;2023-04-04T16:57:02;97118.50;;;19.50;33.46
58771;BME280;44539;42.962;1.596;2023-04-04T16:59:27;97133.06;;;18.95;33.83
58771;BME280;44539;42.962;1.596;2023-04-04T17:01:52;97113.41;;;17.65;35.69
58771;BME280;44539;42.962;1.596;2023-04-04T17:04:18;97122.06;;;18.11;35.97
58771;BME280;44539;42.962;1.596;2023-04-04T17:06:43;97132.06;;;18.59;36.51
58771;BME280;44539;42.962;1.596;2023-04-04T17:09:09;97126.50;;;18.54;36.38
58771;BME280;44539;42.962;1.596;2023-04-04T17:11:35;97130.56;;;16.76;37.77
58771;BME280;44539;42.962;1.596;2023-04-04T17:14:00;97140.03;;;16.78;39.26
58771;BME280;44539;42.962;1.596;2023-04-04T17:16:26;97140.94;;;16.20;41.46
58771;BME280;44539;42.962;1.596;2023-04-04T17:18:52;97150.22;;;14.84;42.41
58771;BME280;44539;42.962;1.596;2023-04-04T17:21:18;97153.09;;;14.28;43.08
58771;BME280;44539;42.962;1.596;2023-04-04T17:23:44;97144.22;;;13.86;45.54
58771;BME280;44539;42.962;1.596;2023-04-04T17:26:09;97149.28;;;14.09;45.78
58771;BME280;44539;42.962;1.596;2023-04-04T17:28:35;97156.59;;;13.94;46.37
58771;BME280;44539;42.962;1.596;2023-04-04T17:31:00;97151.03;;;13.60;46.42
58771;BME280;44539;42.962;1.596;2023-04-04T17:33:26;97157.09;;;13.47;48.15
58771;BME280;44539;42.962;1.596;2023-04-04T17:35:52;97163.66;;;13.02;48.67
58771;BME280;44539;42.962;1.596;2023-04-04T17:38:17;97156.28;;;13.25;49.92
58771;BME280;44539;42.962;1.596;2023-04-04T17:40:46;97157.75;;;13.06;49.58
58771;BME280;44539;42.962;1.596;2023-04-04T17:43:12;97158.91;;;12.97;49.37
58771;BME280;44539;42.962;1.596;2023-04-04T17:45:37;97156.53;;;13.09;48.94
58771;BME280;44539;42.962;1.596;2023-04-04T17:48:03;97164.41;;;12.96;49.88
58771;BME280;44539;42.962;1.596;2023-04-04T17:50:28;97167.91;;;12.60;49.35
58771;BME280;44539;42.962;1.596;2023-04-04T17:52:54;97172.00;;;12.26;50.72
58771;BME280;44539;42.962;1.596;2023-04-04T17:55:20;97176.69;;;12.09;51.28
58771;BME280;44539;42.962;1.596;2023-04-04T17:57:46;97174.97;;;12.16;51.18
58771;BME280;44539;42.962;1.596;2023-04-04T18:00:12;97174.59;;;12.04;51.24
58771;BME280;44539;42.962;1.596;2023-04-04T18:02:38;97177.91;;;12.07;51.78
58771;BME280;44539;42.962;1.596;2023-04-04T18:05:04;97181.03;;;12.10;51.73
58771;BME280;44539;42.962;1.596;2023-04-04T18:07:30;97189.75;;;12.04;52.99
58771;BME280;44539;42.962;1.596;2023-04-04T18:09:55;97186.34;;;11.95;51.16
58771;BME280;44539;42.962;1.596;2023-04-04T18:12:21;97186.63;;;12.00;52.53
58771;BME280;44539;42.962;1.596;2023-04-04T18:14:47;97197.91;;;12.02;53.71
58771;BME280;44539;42.962;1.596;2023-04-04T18:17:12;97195.16;;;11.96;52.64
58771;BME280;44539;42.962;1.596;2023-04-04T18:19:38;97191.66;;;11.95;52.33
58771;BME280;44539;42.962;1.596;2023-04-04T18:22:03;97195.53;;;11.93;54.00
58771;BME280;44539;42.962;1.596;2023-04-04T18:24:28;97199.78;;;11.79;53.56
58771;BME280;44539;42.962;1.596;2023-04-04T18:26:55;97204.44;;;11.62;54.09
58771;BME280;44539;42.962;1.596;2023-04-04T18:29:20;97197.38;;;11.69;54.36
58771;BME280;44539;42.962;1.596;2023-04-04T18:31:46;97209.81;;;11.54;54.29
58771;BME280;44539;42.962;1.596;2023-04-04T18:34:11;97207.38;;;11.52;53.35
58771;BME280;44539;42.962;1.596;2023-04-04T18:36:41;97205.72;;;11.28;54.75
58771;BME280;44539;42.962;1.596;2023-04-04T18:39:06;97205.06;;;11.26;54.25
58771;BME280;44539;42.962;1.596;2023-04-04T18:41:33;97206.78;;;11.19;54.54
58771;BME280;44539;42.962;1.596;2023-04-04T18:43:58;97212.88;;;11.04;54.70
58771;BME280;44539;42.962;1.596;2023-04-04T18:46:24;97213.56;;;10.98;55.10
58771;BME280;44539;42.962;1.596;2023-04-04T18:48:49;97220.22;;;10.94;56.04
58771;BME280;44539;42.962;1.596;2023-04-04T18:51:15;97215.13;;;10.93;55.63
58771;BME280;44539;42.962;1.596;2023-04-04T18:53:40;97224.59;;;10.87;55.65
58771;BME280;44539;42.962;1.596;2023-04-04T18:56:06;97227.66;;;10.76;54.62
58771;BME280;44539;42.962;1.596;2023-04-04T18:58:31;97228.66;;;10.75;56.70
58771;BME280;44539;42.962;1.596;2023-04-04T19:00:57;97224.34;;;10.74;55.31
58771;BME280;44539;42.962;1.596;2023-04-04T19:03:23;97229.19;;;10.70;56.13
58771;BME280;44539;42.962;1.596;2023-04-04T19:05:50;97233.84;;;10.68;56.58
58771;BME280;44539;42.962;1.596;2023-04-04T19:08:17;97244.03;;;10.56;57.79
58771;BME280;44539;42.962;1.596;2023-04-04T19:10:44;97241.38;;;10.56;56.99
58771;BME280;44539;42.962;1.596;2023-04-04T19:13:14;97248.44;;;10.25;56.70
58771;BME280;44539;42.962;1.596;2023-04-04T19:15:40;97252.56;;;10.35;57.17
58771;BME280;44539;42.962;1.596;2023-04-04T19:18:06;97255.94;;;10.05;61.24
58771;BME280;44539;42.962;1.596;2023-04-04T19:20:32;97265.78;;;9.55;59.41
58771;BME280;44539;42.962;1.596;2023-04-04T19:22:57;97265.47;;;9.50;60.26
58771;BME280;44539;42.962;1.596;2023-04-04T19:25:22;97279.34;;;9.35;61.57
58771;BME280;44539;42.962;1.596;2023-04-04T19:27:48;97286.78;;;9.24;60.68
58771;BME280;44539;42.962;1.596;2023-04-04T19:30:40;97287.81;;;9.31;61.23
58771;BME280;44539;42.962;1.596;2023-04-04T19:33:12;97285.84;;;9.41;62.15
58771;BME280;44539;42.962;1.596;2023-04-04T19:36:23;97286.00;;;9.48;61.72
58771;BME280;44539;42.962;1.596;2023-04-04T19:38:41;97284.69;;;9.52;62.17
58771;BME280;44539;42.962;1.596;2023-04-04T19:43:39;97291.63;;;9.53;59.76
58771;BME280;44539;42.962;1.596;2023-04-04T19:46:07;97286.63;;;9.58;58.70
58771;BME280;44539;42.962;1.596;2023-04-04T19:51:34;97302.56;;;9.42;58.24
58771;BME280;44539;42.962;1.596;2023-04-04T19:54:00;97304.72;;;9.46;58.82
58771;BME280;44539;42.962;1.596;2023-04-04T19:56:27;97303.03;;;9.29;58.58
58771;BME280;44539;42.962;1.596;2023-04-04T19:58:54;97316.31;;;9.37;58.55
58771;BME280;44539;42.962;1.596;2023-04-04T20:01:24;97316.31;;;9.37;61.31
58771;BME280;44539;42.962;1.596;2023-04-04T20:03:57;97321.09;;;9.25;59.20
58771;BME280;44539;42.962;1.596;2023-04-04T20:06:29;97333.03;;;9.29;63.28
58771;BME280;44539;42.962;1.596;2023-04-04T20:11:50;97339.81;;;9.32;61.88
58771;BME280;44539;42.962;1.596;2023-04-04T20:14:18;97337.47;;;9.20;63.10
58771;BME280;44539;42.962;1.596;2023-04-04T20:16:45;97342.38;;;8.99;67.80
58771;BME280;44539;42.962;1.596;2023-04-04T20:19:10;97338.31;;;8.78;72.21
58771;BME280;44539;42.962;1.596;2023-04-04T20:21:44;97349.53;;;8.64;71.92
58771;BME280;44539;42.962;1.596;2023-04-04T20:24:09;97340.72;;;8.64;69.19
58771;BME280;44539;42.962;1.596;2023-04-04T20:26:38;97337.03;;;8.48;70.11
58771;BME280;44539;42.962;1.596;2023-04-04T20:29:05;97347.28;;;8.25;70.54